sensor_id;sensor_type;location;lat;lon;timestamp;P1;durP1;ratioP1;P2;durP2;ratioP2
19312;SDS011;9791;50.820;4.406;2023-05-25T00:02:19;9.23;;;3.95;;
19312;SDS011;9791;50.820;4.406;2023-05-25T00:04:48;13.68;;;5.15;;
19312;SDS011;9791;50.820;4.406;2023-05-25T00:07:14;11.77;;;3.88;;
19312;SDS011;9791;50.820;4.406;2023-05-25T00:09:41;12.30;;;4.60;;
19312;SDS011;9791;50.820;4.406;2023-05-25T00:12:08;15.55;;;4.43;;
19312;SDS011;9791;50.820;4.406;2023-05-25T00:14:34;9.15;;;3.65;;
19312;SDS011;9791;50.820;4.406;2023-05-25T00:17:00;12.82;;;3.88;;
19312;SDS011;9791;50.820;4.406;2023-05-25T00:19:29;12.23;;;4.40;;
19312;SDS011;9791;50.820;4.406;2023-05-25T00:21:58;7.53;;;3.63;;
19312;SDS011;9791;50.820;4.406;2023-05-25T00:24:28;9.80;;;4.03;;
19312;SDS011;9791;50.820;4.406;2023-05-25T00:26:58;10.88;;;3.97;;
19312;SDS011;9791;50.820;4.406;2023-05-25T00:29:24;11.35;;;3.97;;
19312;SDS011;9791;50.820;4.406;2023-05-25T00:31:51;18.98;;;5.10;;
19312;SDS011;9791;50.820;4.406;2023-05-25T00:34:17;14.07;;;4.60;;
19312;SDS011;9791;50.820;4.406;2023-05-25T00:36:43;11.70;;;4.50;;
19312;SDS011;9791;50.820;4.406;2023-05-25T00:39:15;14.18;;;4.40;;
19312;SDS011;9791;50.820;4.406;2023-05-25T00:41:42;14.57;;;4.63;;
19312;SDS011;9791;50.820;4.406;2023-05-25T00:44:10;10.98;;;4.55;;
19312;SDS011;9791;50.820;4.406;2023-05-25T00:46:36;12.52;;;4.38;;
19312;SDS011;9791;50.820;4.406;2023-05-25T00:49:03;9.07;;;4.50;;
19312;SDS011;9791;50.820;4.406;2023-05-25T00:51:29;12.02;;;4.57;;
19312;SDS011;9791;50.820;4.406;2023-05-25T00:54:00;12.68;;;3.80;;
19312;SDS011;9791;50.820;4.406;2023-05-25T00:56:29;12.30;;;4.15;;
19312;SDS011;9791;50.820;4.406;2023-05-25T00:58:56;12.55;;;4.68;;
19312;SDS011;9791;50.820;4.406;2023-05-25T01:01:25;17.20;;;5.13;;
19312;SDS011;9791;50.820;4.406;2023-05-25T01:03:52;12.52;;;4.88;;
19312;SDS011;9791;50.820;4.406;2023-05-25T01:06:19;11.02;;;4.95;;
19312;SDS011;9791;50.820;4.406;2023-05-25T01:08:48;11.80;;;4.50;;
19312;SDS011;9791;50.820;4.406;2023-05-25T01:11:15;8.73;;;4.07;;
19312;SDS011;9791;50.820;4.406;2023-05-25T01:13:44;14.55;;;5.05;;
19312;SDS011;9791;50.820;4.406;2023-05-25T01:16:10;11.00;;;4.32;;
19312;SDS011;9791;50.820;4.406;2023-05-25T01:18:37;11.82;;;5.03;;
19312;SDS011;9791;50.820;4.406;2023-05-25T01:21:10;11.00;;;4.70;;
19312;SDS011;9791;50.820;4.406;2023-05-25T01:23:42;11.52;;;5.10;;
19312;SDS011;9791;50.820;4.406;2023-05-25T01:26:12;11.07;;;4.95;;
19312;SDS011;9791;50.820;4.406;2023-05-25T01:28:41;10.57;;;4.88;;
19312;SDS011;9791;50.820;4.406;2023-05-25T01:31:10;13.45;;;5.05;;
19312;SDS011;9791;50.820;4.406;2023-05-25T01:33:36;11.77;;;4.20;;
19312;SDS011;9791;50.820;4.406;2023-05-25T01:36:04;10.25;;;4.80;;
19312;SDS011;9791;50.820;4.406;2023-05-25T01:38:30;11.25;;;4.75;;
19312;SDS011;9791;50.820;4.406;2023-05-25T01:40:56;12.95;;;4.63;;
19312;SDS011;9791;50.820;4.406;2023-05-25T01:43:22;14.93;;;4.80;;
19312;SDS011;9791;50.820;4.406;2023-05-25T01:45:48;13.35;;;5.05;;
19312;SDS011;9791;50.820;4.406;2023-05-25T01:48:29;9.55;;;4.68;;
19312;SDS011;9791;50.820;4.406;2023-05-25T01:53:33;16.50;;;5.38;;
19312;SDS011;9791;50.820;4.406;2023-05-25T01:56:07;16.38;;;5.00;;
19312;SDS011;9791;50.820;4.406;2023-05-25T01:58:35;13.75;;;5.03;;
19312;SDS011;9791;50.820;4.406;2023-05-25T02:01:03;12.93;;;5.10;;
19312;SDS011;9791;50.820;4.406;2023-05-25T02:03:29;10.82;;;4.80;;
19312;SDS011;9791;50.820;4.406;2023-05-25T02:05:55;9.98;;;4.53;;
19312;SDS011;9791;50.820;4.406;2023-05-25T02:08:22;16.52;;;6.35;;
19312;SDS011;9791;50.820;4.406;2023-05-25T02:10:48;15.07;;;5.10;;
19312;SDS011;9791;50.820;4.406;2023-05-25T02:13:14;16.48;;;4.72;;
19312;SDS011;9791;50.820;4.406;2023-05-25T02:15:40;15.65;;;5.60;;
19312;SDS011;9791;50.820;4.406;2023-05-25T02:18:06;13.68;;;5.53;;
19312;SDS011;9791;50.820;4.406;2023-05-25T02:20:32;14.95;;;6.45;;
19312;SDS011;9791;50.820;4.406;2023-05-25T02:22:58;14.43;;;5.30;;
19312;SDS011;9791;50.820;4.406;2023-05-25T02:25:24;12.38;;;5.38;;
19312;SDS011;9791;50.820;4.406;2023-05-25T02:27:50;14.80;;;5.32;;
19312;SDS011;9791;50.820;4.406;2023-05-25T02:30:16;16.08;;;5.60;;
19312;SDS011;9791;50.820;4.406;2023-05-25T02:32:42;14.18;;;6.40;;
19312;SDS011;9791;50.820;4.406;2023-05-25T02:35:08;14.60;;;5.55;;
19312;SDS011;9791;50.820;4.406;2023-05-25T02:37:36;14.35;;;5.13;;
19312;SDS011;9791;50.820;4.406;2023-05-25T02:40:02;14.98;;;5.45;;
19312;SDS011;9791;50.820;4.406;2023-05-25T02:42:28;14.60;;;5.97;;
19312;SDS011;9791;50.820;4.406;2023-05-25T02:44:54;18.77;;;6.18;;
19312;SDS011;9791;50.820;4.406;2023-05-25T02:47:21;12.55;;;5.90;;
19312;SDS011;9791;50.820;4.406;2023-05-25T02:49:47;12.13;;;5.45;;
19312;SDS011;9791;50.820;4.406;2023-05-25T02:52:13;12.35;;;5.60;;
19312;SDS011;9791;50.820;4.406;2023-05-25T02:54:39;13.00;;;5.00;;
19312;SDS011;9791;50.820;4.406;2023-05-25T02:57:05;14.38;;;6.05;;
19312;SDS011;9791;50.820;4.406;2023-05-25T02:59:32;13.45;;;5.55;;
19312;SDS011;9791;50.820;4.406;2023-05-25T03:01:58;13.18;;;6.40;;
19312;SDS011;9791;50.820;4.406;2023-05-25T03:04:24;16.25;;;5.40;;
19312;SDS011;9791;50.820;4.406;2023-05-25T03:06:50;17.98;;;6.10;;
19312;SDS011;9791;50.820;4.406;2023-05-25T03:09:16;14.68;;;5.55;;
19312;SDS011;9791;50.820;4.406;2023-05-25T03:11:42;12.50;;;5.30;;
19312;SDS011;9791;50.820;4.406;2023-05-25T03:14:08;16.75;;;5.75;;
19312;SDS011;9791;50.820;4.406;2023-05-25T03:16:35;15.70;;;5.43;;
19312;SDS011;9791;50.820;4.406;2023-05-25T03:19:02;14.18;;;5.50;;
19312;SDS011;9791;50.820;4.406;2023-05-25T03:21:29;13.73;;;5.72;;
19312;SDS011;9791;50.820;4.406;2023-05-25T03:23:55;12.38;;;5.82;;
19312;SDS011;9791;50.820;4.406;2023-05-25T03:26:21;13.10;;;6.00;;
19312;SDS011;9791;50.820;4.406;2023-05-25T03:28:50;11.70;;;5.18;;
19312;SDS011;9791;50.820;4.406;2023-05-25T03:31:16;12.05;;;5.60;;
19312;SDS011;9791;50.820;4.406;2023-05-25T03:33:42;17.00;;;6.70;;
19312;SDS011;9791;50.820;4.406;2023-05-25T03:36:08;13.23;;;6.18;;
19312;SDS011;9791;50.820;4.406;2023-05-25T03:38:38;19.17;;;6.30;;
19312;SDS011;9791;50.820;4.406;2023-05-25T03:41:04;14.73;;;6.53;;
19312;SDS011;9791;50.820;4.406;2023-05-25T03:43:30;16.80;;;6.05;;
19312;SDS011;9791;50.820;4.406;2023-05-25T03:45:56;13.60;;;6.07;;
19312;SDS011;9791;50.820;4.406;2023-05-25T03:48:22;15.93;;;6.22;;
19312;SDS011;9791;50.820;4.406;2023-05-25T03:50:48;16.00;;;6.47;;
19312;SDS011;9791;50.820;4.406;2023-05-25T03:53:14;17.85;;;6.57;;
19312;SDS011;9791;50.820;4.406;2023-05-25T03:55:40;14.10;;;6.13;;
19312;SDS011;9791;50.820;4.406;2023-05-25T03:58:06;19.42;;;7.40;;
19312;SDS011;9791;50.820;4.406;2023-05-25T04:00:35;15.00;;;6.18;;
19312;SDS011;9791;50.820;4.406;2023-05-25T04:03:02;12.05;;;6.40;;
19312;SDS011;9791;50.820;4.406;2023-05-25T04:05:28;13.30;;;6.45;;
19312;SDS011;9791;50.820;4.406;2023-05-25T04:07:54;18.67;;;6.55;;
19312;SDS011;9791;50.820;4.406;2023-05-25T04:10:21;19.83;;;6.90;;
19312;SDS011;9791;50.820;4.406;2023-05-25T04:12:47;18.80;;;6.18;;
19312;SDS011;9791;50.820;4.406;2023-05-25T04:15:15;11.23;;;6.22;;
19312;SDS011;9791;50.820;4.406;2023-05-25T04:17:42;18.25;;;6.63;;
19312;SDS011;9791;50.820;4.406;2023-05-25T04:20:08;10.77;;;5.65;;
19312;SDS011;9791;50.820;4.406;2023-05-25T04:22:34;17.58;;;7.30;;
19312;SDS011;9791;50.820;4.406;2023-05-25T04:25:04;17.55;;;6.88;;
19312;SDS011;9791;50.820;4.406;2023-05-25T04:27:30;13.82;;;6.30;;
19312;SDS011;9791;50.820;4.406;2023-05-25T04:29:56;17.70;;;6.50;;
19312;SDS011;9791;50.820;4.406;2023-05-25T04:32:23;16.20;;;6.22;;
19312;SDS011;9791;50.820;4.406;2023-05-25T04:34:49;12.80;;;5.80;;
19312;SDS011;9791;50.820;4.406;2023-05-25T04:37:16;13.70;;;5.50;;
19312;SDS011;9791;50.820;4.406;2023-05-25T04:39:42;14.63;;;5.72;;
19312;SDS011;9791;50.820;4.406;2023-05-25T04:42:08;14.05;;;6.70;;
19312;SDS011;9791;50.820;4.406;2023-05-25T04:44:34;12.50;;;5.80;;
19312;SDS011;9791;50.820;4.406;2023-05-25T04:47:01;14.05;;;6.78;;
19312;SDS011;9791;50.820;4.406;2023-05-25T04:49:27;22.02;;;6.15;;
19312;SDS011;9791;50.820;4.406;2023-05-25T04:51:53;16.33;;;6.18;;
19312;SDS011;9791;50.820;4.406;2023-05-25T04:54:19;15.35;;;5.97;;
19312;SDS011;9791;50.820;4.406;2023-05-25T04:56:45;17.05;;;6.47;;
19312;SDS011;9791;50.820;4.406;2023-05-25T04:59:12;12.57;;;6.30;;
19312;SDS011;9791;50.820;4.406;2023-05-25T05:01:38;15.93;;;6.22;;
19312;SDS011;9791;50.820;4.406;2023-05-25T05:04:06;13.70;;;6.30;;
19312;SDS011;9791;50.820;4.406;2023-05-25T05:06:32;14.32;;;6.18;;
19312;SDS011;9791;50.820;4.406;2023-05-25T05:08:58;12.27;;;6.40;;
19312;SDS011;9791;50.820;4.406;2023-05-25T05:11:25;17.75;;;6.03;;
19312;SDS011;9791;50.820;4.406;2023-05-25T05:13:51;14.27;;;6.32;;
19312;SDS011;9791;50.820;4.406;2023-05-25T05:16:18;16.52;;;6.72;;
19312;SDS011;9791;50.820;4.406;2023-05-25T05:18:46;16.13;;;6.38;;
19312;SDS011;9791;50.820;4.406;2023-05-25T05:21:12;15.70;;;6.28;;
19312;SDS011;9791;50.820;4.406;2023-05-25T05:23:38;12.43;;;6.32;;
19312;SDS011;9791;50.820;4.406;2023-05-25T05:26:05;12.95;;;6.03;;
19312;SDS011;9791;50.820;4.406;2023-05-25T05:28:34;16.90;;;6.10;;
19312;SDS011;9791;50.820;4.406;2023-05-25T05:31:00;18.60;;;7.05;;
19312;SDS011;9791;50.820;4.406;2023-05-25T05:33:26;15.27;;;5.47;;
19312;SDS011;9791;50.820;4.406;2023-05-25T05:35:52;12.73;;;5.88;;
19312;SDS011;9791;50.820;4.406;2023-05-25T05:38:19;13.60;;;6.45;;
19312;SDS011;9791;50.820;4.406;2023-05-25T05:40:45;16.13;;;5.70;;
19312;SDS011;9791;50.820;4.406;2023-05-25T05:43:11;13.90;;;5.70;;
19312;SDS011;9791;50.820;4.406;2023-05-25T05:45:38;12.20;;;5.53;;
19312;SDS011;9791;50.820;4.406;2023-05-25T05:48:04;16.38;;;7.05;;
19312;SDS011;9791;50.820;4.406;2023-05-25T05:50:34;14.13;;;4.93;;
19312;SDS011;9791;50.820;4.406;2023-05-25T05:53:00;14.20;;;5.38;;
19312;SDS011;9791;50.820;4.406;2023-05-25T05:55:26;11.32;;;5.47;;
19312;SDS011;9791;50.820;4.406;2023-05-25T05:57:52;15.38;;;5.38;;
19312;SDS011;9791;50.820;4.406;2023-05-25T06:00:18;13.23;;;5.68;;
19312;SDS011;9791;50.820;4.406;2023-05-25T06:02:44;13.65;;;5.82;;
19312;SDS011;9791;50.820;4.406;2023-05-25T06:05:10;12.00;;;5.03;;
19312;SDS011;9791;50.820;4.406;2023-05-25T06:07:36;12.15;;;5.65;;
19312;SDS011;9791;50.820;4.406;2023-05-25T06:10:03;17.35;;;6.10;;
19312;SDS011;9791;50.820;4.406;2023-05-25T06:12:30;17.58;;;5.68;;
19312;SDS011;9791;50.820;4.406;2023-05-25T06:14:56;11.98;;;4.57;;
19312;SDS011;9791;50.820;4.406;2023-05-25T06:17:22;11.30;;;4.40;;
19312;SDS011;9791;50.820;4.406;2023-05-25T06:19:48;10.02;;;4.47;;
19312;SDS011;9791;50.820;4.406;2023-05-25T06:22:15;10.23;;;3.92;;
19312;SDS011;9791;50.820;4.406;2023-05-25T06:24:41;11.63;;;4.40;;
19312;SDS011;9791;50.820;4.406;2023-05-25T06:27:07;10.63;;;4.22;;
19312;SDS011;9791;50.820;4.406;2023-05-25T06:29:33;8.20;;;3.72;;
19312;SDS011;9791;50.820;4.406;2023-05-25T06:31:59;16.88;;;5.00;;
19312;SDS011;9791;50.820;4.406;2023-05-25T06:34:25;13.18;;;3.80;;
19312;SDS011;9791;50.820;4.406;2023-05-25T06:36:51;10.82;;;3.65;;
19312;SDS011;9791;50.820;4.406;2023-05-25T06:39:18;9.25;;;3.72;;
19312;SDS011;9791;50.820;4.406;2023-05-25T06:41:44;8.13;;;3.72;;
19312;SDS011;9791;50.820;4.406;2023-05-25T06:44:10;13.25;;;4.45;;
19312;SDS011;9791;50.820;4.406;2023-05-25T06:46:36;10.25;;;3.60;;
19312;SDS011;9791;50.820;4.406;2023-05-25T06:49:03;9.75;;;3.97;;
19312;SDS011;9791;50.820;4.406;2023-05-25T06:51:29;10.68;;;3.60;;
19312;SDS011;9791;50.820;4.406;2023-05-25T06:53:57;11.55;;;3.13;;
19312;SDS011;9791;50.820;4.406;2023-05-25T06:56:23;11.77;;;4.22;;
19312;SDS011;9791;50.820;4.406;2023-05-25T06:58:49;17.17;;;4.15;;
19312;SDS011;9791;50.820;4.406;2023-05-25T07:01:15;12.68;;;4.20;;
19312;SDS011;9791;50.820;4.406;2023-05-25T07:03:42;16.05;;;4.18;;
19312;SDS011;9791;50.820;4.406;2023-05-25T07:06:08;11.75;;;4.28;;
19312;SDS011;9791;50.820;4.406;2023-05-25T07:08:36;13.95;;;4.03;;
19312;SDS011;9791;50.820;4.406;2023-05-25T07:11:03;9.80;;;4.07;;
19312;SDS011;9791;50.820;4.406;2023-05-25T07:13:29;22.08;;;4.25;;
19312;SDS011;9791;50.820;4.406;2023-05-25T07:15:55;22.35;;;4.45;;
19312;SDS011;9791;50.820;4.406;2023-05-25T07:18:21;11.30;;;3.67;;
19312;SDS011;9791;50.820;4.406;2023-05-25T07:20:47;14.43;;;4.07;;
19312;SDS011;9791;50.820;4.406;2023-05-25T07:23:13;12.30;;;4.32;;
19312;SDS011;9791;50.820;4.406;2023-05-25T07:25:39;11.05;;;4.22;;
19312;SDS011;9791;50.820;4.406;2023-05-25T07:28:06;10.63;;;3.97;;
19312;SDS011;9791;50.820;4.406;2023-05-25T07:30:32;12.07;;;4.55;;
19312;SDS011;9791;50.820;4.406;2023-05-25T07:32:58;12.20;;;3.85;;
19312;SDS011;9791;50.820;4.406;2023-05-25T07:35:25;11.60;;;4.10;;
19312;SDS011;9791;50.820;4.406;2023-05-25T07:38:01;12.38;;;4.05;;
19312;SDS011;9791;50.820;4.406;2023-05-25T07:40:30;11.95;;;4.30;;
19312;SDS011;9791;50.820;4.406;2023-05-25T07:42:57;9.07;;;3.78;;
19312;SDS011;9791;50.820;4.406;2023-05-25T07:45:23;14.73;;;4.22;;
19312;SDS011;9791;50.820;4.406;2023-05-25T07:47:49;11.93;;;4.00;;
19312;SDS011;9791;50.820;4.406;2023-05-25T07:50:15;8.45;;;4.05;;
19312;SDS011;9791;50.820;4.406;2023-05-25T07:52:41;10.63;;;3.60;;
19312;SDS011;9791;50.820;4.406;2023-05-25T07:55:07;9.23;;;3.53;;
19312;SDS011;9791;50.820;4.406;2023-05-25T07:57:34;9.07;;;3.42;;
19312;SDS011;9791;50.820;4.406;2023-05-25T08:00:00;11.63;;;3.80;;
19312;SDS011;9791;50.820;4.406;2023-05-25T08:02:28;13.10;;;3.42;;
19312;SDS011;9791;50.820;4.406;2023-05-25T08:04:54;14.27;;;3.83;;
19312;SDS011;9791;50.820;4.406;2023-05-25T08:07:20;9.68;;;3.67;;
19312;SDS011;9791;50.820;4.406;2023-05-25T08:09:46;12.20;;;4.05;;
19312;SDS011;9791;50.820;4.406;2023-05-25T08:12:12;8.88;;;2.95;;
19312;SDS011;9791;50.820;4.406;2023-05-25T08:14:38;7.72;;;2.83;;
19312;SDS011;9791;50.820;4.406;2023-05-25T08:17:06;11.63;;;3.40;;
19312;SDS011;9791;50.820;4.406;2023-05-25T08:19:32;11.88;;;3.72;;
19312;SDS011;9791;50.820;4.406;2023-05-25T08:21:58;17.63;;;3.72;;
19312;SDS011;9791;50.820;4.406;2023-05-25T08:24:24;11.63;;;4.15;;
19312;SDS011;9791;50.820;4.406;2023-05-25T08:26:50;16.70;;;4.30;;
19312;SDS011;9791;50.820;4.406;2023-05-25T08:29:16;15.80;;;3.58;;
19312;SDS011;9791;50.820;4.406;2023-05-25T08:31:43;13.88;;;4.10;;
19312;SDS011;9791;50.820;4.406;2023-05-25T08:34:13;19.35;;;4.25;;
19312;SDS011;9791;50.820;4.406;2023-05-25T08:36:39;14.45;;;4.68;;
19312;SDS011;9791;50.820;4.406;2023-05-25T08:39:05;15.57;;;3.60;;
19312;SDS011;9791;50.820;4.406;2023-05-25T08:41:33;12.88;;;3.90;;
19312;SDS011;9791;50.820;4.406;2023-05-25T08:44:00;15.73;;;5.10;;
19312;SDS011;9791;50.820;4.406;2023-05-25T08:46:30;11.93;;;3.90;;
19312;SDS011;9791;50.820;4.406;2023-05-25T08:51:35;14.30;;;4.45;;
19312;SDS011;9791;50.820;4.406;2023-05-25T08:54:06;16.17;;;4.90;;
19312;SDS011;9791;50.820;4.406;2023-05-25T08:56:33;17.80;;;4.70;;
19312;SDS011;9791;50.820;4.406;2023-05-25T08:59:02;11.70;;;3.92;;
19312;SDS011;9791;50.820;4.406;2023-05-25T09:01:31;11.52;;;3.80;;
19312;SDS011;9791;50.820;4.406;2023-05-25T09:03:58;16.00;;;3.88;;
19312;SDS011;9791;50.820;4.406;2023-05-25T09:06:24;10.18;;;3.45;;
19312;SDS011;9791;50.820;4.406;2023-05-25T09:08:51;10.73;;;3.22;;
19312;SDS011;9791;50.820;4.406;2023-05-25T09:11:18;10.30;;;4.13;;
19312;SDS011;9791;50.820;4.406;2023-05-25T09:13:45;9.30;;;3.58;;
19312;SDS011;9791;50.820;4.406;2023-05-25T09:16:11;11.50;;;3.88;;
19312;SDS011;9791;50.820;4.406;2023-05-25T09:18:37;11.13;;;3.97;;
19312;SDS011;9791;50.820;4.406;2023-05-25T09:21:04;11.00;;;4.30;;
19312;SDS011;9791;50.820;4.406;2023-05-25T09:23:31;12.65;;;3.72;;
19312;SDS011;9791;50.820;4.406;2023-05-25T09:25:58;9.65;;;3.50;;
19312;SDS011;9791;50.820;4.406;2023-05-25T09:28:26;8.80;;;3.05;;
19312;SDS011;9791;50.820;4.406;2023-05-25T09:30:52;9.52;;;3.30;;
19312;SDS011;9791;50.820;4.406;2023-05-25T09:33:18;8.70;;;3.20;;
19312;SDS011;9791;50.820;4.406;2023-05-25T09:35:45;16.42;;;4.43;;
19312;SDS011;9791;50.820;4.406;2023-05-25T09:38:14;10.70;;;3.25;;
19312;SDS011;9791;50.820;4.406;2023-05-25T09:40:40;11.45;;;3.60;;
19312;SDS011;9791;50.820;4.406;2023-05-25T09:43:06;6.93;;;3.13;;
19312;SDS011;9791;50.820;4.406;2023-05-25T09:45:32;9.73;;;3.40;;
19312;SDS011;9791;50.820;4.406;2023-05-25T09:48:00;9.43;;;3.70;;
19312;SDS011;9791;50.820;4.406;2023-05-25T09:50:29;11.27;;;3.90;;
19312;SDS011;9791;50.820;4.406;2023-05-25T09:52:56;8.15;;;3.10;;
19312;SDS011;9791;50.820;4.406;2023-05-25T09:55:23;8.57;;;3.20;;
19312;SDS011;9791;50.820;4.406;2023-05-25T09:57:53;13.68;;;3.22;;
19312;SDS011;9791;50.820;4.406;2023-05-25T10:00:19;15.30;;;3.78;;
19312;SDS011;9791;50.820;4.406;2023-05-25T10:02:46;18.85;;;3.50;;
19312;SDS011;9791;50.820;4.406;2023-05-25T10:05:12;9.23;;;3.30;;
19312;SDS011;9791;50.820;4.406;2023-05-25T10:07:38;11.80;;;3.13;;
19312;SDS011;9791;50.820;4.406;2023-05-25T10:10:05;10.70;;;2.95;;
19312;SDS011;9791;50.820;4.406;2023-05-25T10:12:32;8.05;;;2.80;;
19312;SDS011;9791;50.820;4.406;2023-05-25T10:14:58;8.10;;;2.83;;
19312;SDS011;9791;50.820;4.406;2023-05-25T10:17:26;6.35;;;2.58;;
19312;SDS011;9791;50.820;4.406;2023-05-25T10:19:56;8.18;;;2.53;;
19312;SDS011;9791;50.820;4.406;2023-05-25T10:22:24;10.07;;;3.00;;
19312;SDS011;9791;50.820;4.406;2023-05-25T10:24:53;6.72;;;2.53;;
19312;SDS011;9791;50.820;4.406;2023-05-25T10:27:22;7.57;;;3.20;;
19312;SDS011;9791;50.820;4.406;2023-05-25T10:29:54;9.00;;;3.03;;
19312;SDS011;9791;50.820;4.406;2023-05-25T10:32:22;8.02;;;2.42;;
19312;SDS011;9791;50.820;4.406;2023-05-25T10:34:49;9.50;;;3.20;;
19312;SDS011;9791;50.820;4.406;2023-05-25T10:37:16;6.93;;;2.55;;
19312;SDS011;9791;50.820;4.406;2023-05-25T10:39:43;7.95;;;2.53;;
19312;SDS011;9791;50.820;4.406;2023-05-25T10:42:09;9.52;;;2.47;;
19312;SDS011;9791;50.820;4.406;2023-05-25T10:44:36;10.68;;;2.55;;
19312;SDS011;9791;50.820;4.406;2023-05-25T10:47:03;9.32;;;2.75;;
19312;SDS011;9791;50.820;4.406;2023-05-25T10:49:30;8.95;;;2.75;;
19312;SDS011;9791;50.820;4.406;2023-05-25T10:51:59;5.80;;;2.35;;
19312;SDS011;9791;50.820;4.406;2023-05-25T10:54:29;7.38;;;2.35;;
19312;SDS011;9791;50.820;4.406;2023-05-25T10:57:11;7.90;;;2.40;;
19312;SDS011;9791;50.820;4.406;2023-05-25T10:59:40;6.88;;;2.63;;
19312;SDS011;9791;50.820;4.406;2023-05-25T11:02:09;11.85;;;2.85;;
19312;SDS011;9791;50.820;4.406;2023-05-25T11:04:35;7.20;;;2.53;;
19312;SDS011;9791;50.820;4.406;2023-05-25T11:09:30;7.88;;;2.60;;
19312;SDS011;9791;50.820;4.406;2023-05-25T11:14:27;6.78;;;2.72;;
19312;SDS011;9791;50.820;4.406;2023-05-25T11:17:15;6.53;;;2.00;;
19312;SDS011;9791;50.820;4.406;2023-05-25T11:19:52;6.20;;;2.42;;
19312;SDS011;9791;50.820;4.406;2023-05-25T11:22:38;6.32;;;2.10;;
19312;SDS011;9791;50.820;4.406;2023-05-25T11:27:49;15.48;;;3.05;;
19312;SDS011;9791;50.820;4.406;2023-05-25T11:30:18;8.18;;;3.08;;
19312;SDS011;9791;50.820;4.406;2023-05-25T11:32:47;11.32;;;2.63;;
19312;SDS011;9791;50.820;4.406;2023-05-25T11:35:14;9.38;;;2.70;;
19312;SDS011;9791;50.820;4.406;2023-05-25T11:37:40;7.28;;;2.80;;
19312;SDS011;9791;50.820;4.406;2023-05-25T11:40:07;8.65;;;2.85;;
19312;SDS011;9791;50.820;4.406;2023-05-25T11:42:33;10.05;;;2.80;;
19312;SDS011;9791;50.820;4.406;2023-05-25T11:45:02;6.28;;;2.58;;
19312;SDS011;9791;50.820;4.406;2023-05-25T11:47:28;7.75;;;2.60;;
19312;SDS011;9791;50.820;4.406;2023-05-25T11:49:54;9.20;;;2.80;;
19312;SDS011;9791;50.820;4.406;2023-05-25T11:52:21;7.47;;;2.80;;
19312;SDS011;9791;50.820;4.406;2023-05-25T11:54:47;7.20;;;2.83;;
19312;SDS011;9791;50.820;4.406;2023-05-25T11:57:18;7.15;;;3.00;;
19312;SDS011;9791;50.820;4.406;2023-05-25T12:02:15;7.28;;;3.00;;
19312;SDS011;9791;50.820;4.406;2023-05-25T12:04:41;9.57;;;3.55;;
19312;SDS011;9791;50.820;4.406;2023-05-25T12:07:16;8.25;;;3.15;;
19312;SDS011;9791;50.820;4.406;2023-05-25T12:09:42;7.93;;;2.78;;
19312;SDS011;9791;50.820;4.406;2023-05-25T12:12:08;8.88;;;3.30;;
19312;SDS011;9791;50.820;4.406;2023-05-25T12:14:34;11.60;;;3.67;;
19312;SDS011;9791;50.820;4.406;2023-05-25T12:17:10;7.78;;;3.80;;
19312;SDS011;9791;50.820;4.406;2023-05-25T12:19:36;8.40;;;3.70;;
19312;SDS011;9791;50.820;4.406;2023-05-25T12:22:03;10.13;;;3.60;;
19312;SDS011;9791;50.820;4.406;2023-05-25T12:24:29;6.63;;;3.00;;
19312;SDS011;9791;50.820;4.406;2023-05-25T12:26:55;8.43;;;3.63;;
19312;SDS011;9791;50.820;4.406;2023-05-25T12:29:23;13.02;;;3.35;;
19312;SDS011;9791;50.820;4.406;2023-05-25T12:31:50;13.30;;;3.75;;
19312;SDS011;9791;50.820;4.406;2023-05-25T12:34:17;8.18;;;3.63;;
19312;SDS011;9791;50.820;4.406;2023-05-25T12:41:56;8.82;;;3.58;;
19312;SDS011;9791;50.820;4.406;2023-05-25T12:46:51;7.68;;;3.47;;
19312;SDS011;9791;50.820;4.406;2023-05-25T12:51:49;9.15;;;3.25;;
19312;SDS011;9791;50.820;4.406;2023-05-25T12:54:16;11.60;;;4.07;;
19312;SDS011;9791;50.820;4.406;2023-05-25T12:56:57;10.45;;;3.80;;
19312;SDS011;9791;50.820;4.406;2023-05-25T12:59:24;9.63;;;3.20;;
19312;SDS011;9791;50.820;4.406;2023-05-25T13:01:50;13.77;;;4.10;;
19312;SDS011;9791;50.820;4.406;2023-05-25T13:04:16;12.38;;;4.40;;
19312;SDS011;9791;50.820;4.406;2023-05-25T13:06:42;11.45;;;3.95;;
19312;SDS011;9791;50.820;4.406;2023-05-25T13:09:08;16.27;;;3.75;;
19312;SDS011;9791;50.820;4.406;2023-05-25T13:11:35;10.48;;;3.75;;
19312;SDS011;9791;50.820;4.406;2023-05-25T13:14:02;10.40;;;3.38;;
19312;SDS011;9791;50.820;4.406;2023-05-25T13:16:32;8.15;;;3.67;;
19312;SDS011;9791;50.820;4.406;2023-05-25T13:18:58;11.27;;;3.47;;
19312;SDS011;9791;50.820;4.406;2023-05-25T13:21:24;8.38;;;3.30;;
19312;SDS011;9791;50.820;4.406;2023-05-25T13:23:51;8.30;;;3.20;;
19312;SDS011;9791;50.820;4.406;2023-05-25T13:26:17;9.98;;;4.07;;
19312;SDS011;9791;50.820;4.406;2023-05-25T13:28:44;9.07;;;3.53;;
19312;SDS011;9791;50.820;4.406;2023-05-25T13:31:10;10.10;;;3.72;;
19312;SDS011;9791;50.820;4.406;2023-05-25T13:33:36;9.80;;;3.70;;
19312;SDS011;9791;50.820;4.406;2023-05-25T13:36:02;10.35;;;3.63;;
19312;SDS011;9791;50.820;4.406;2023-05-25T13:38:35;10.23;;;3.55;;
19312;SDS011;9791;50.820;4.406;2023-05-25T13:41:01;9.10;;;3.50;;
19312;SDS011;9791;50.820;4.406;2023-05-25T13:43:29;7.57;;;3.55;;
19312;SDS011;9791;50.820;4.406;2023-05-25T13:45:55;7.90;;;3.63;;
19312;SDS011;9791;50.820;4.406;2023-05-25T13:48:23;11.63;;;3.83;;
19312;SDS011;9791;50.820;4.406;2023-05-25T13:50:49;10.43;;;3.65;;
19312;SDS011;9791;50.820;4.406;2023-05-25T13:53:15;8.88;;;3.80;;
19312;SDS011;9791;50.820;4.406;2023-05-25T13:55:42;9.55;;;3.78;;
19312;SDS011;9791;50.820;4.406;2023-05-25T13:58:08;8.65;;;4.15;;
19312;SDS011;9791;50.820;4.406;2023-05-25T14:00:34;12.02;;;3.67;;
19312;SDS011;9791;50.820;4.406;2023-05-25T14:03:00;9.73;;;3.35;;
19312;SDS011;9791;50.820;4.406;2023-05-25T14:05:27;9.15;;;4.28;;
19312;SDS011;9791;50.820;4.406;2023-05-25T14:07:54;11.45;;;4.22;;
19312;SDS011;9791;50.820;4.406;2023-05-25T14:10:20;13.73;;;4.20;;
19312;SDS011;9791;50.820;4.406;2023-05-25T14:12:47;11.15;;;3.70;;
19312;SDS011;9791;50.820;4.406;2023-05-25T14:15:13;13.00;;;3.88;;
19312;SDS011;9791;50.820;4.406;2023-05-25T14:17:39;9.70;;;3.85;;
19312;SDS011;9791;50.820;4.406;2023-05-25T14:20:05;12.05;;;3.78;;
19312;SDS011;9791;50.820;4.406;2023-05-25T14:22:31;11.65;;;3.95;;
19312;SDS011;9791;50.820;4.406;2023-05-25T14:24:57;8.70;;;3.70;;
19312;SDS011;9791;50.820;4.406;2023-05-25T14:27:23;13.93;;;3.75;;
19312;SDS011;9791;50.820;4.406;2023-05-25T14:29:50;12.07;;;3.80;;
19312;SDS011;9791;50.820;4.406;2023-05-25T14:32:16;14.80;;;4.20;;
19312;SDS011;9791;50.820;4.406;2023-05-25T14:34:43;9.90;;;3.70;;
19312;SDS011;9791;50.820;4.406;2023-05-25T14:37:09;14.20;;;4.03;;
19312;SDS011;9791;50.820;4.406;2023-05-25T14:39:35;11.15;;;4.00;;
19312;SDS011;9791;50.820;4.406;2023-05-25T14:42:02;14.27;;;3.75;;
19312;SDS011;9791;50.820;4.406;2023-05-25T14:44:29;12.95;;;3.75;;
19312;SDS011;9791;50.820;4.406;2023-05-25T14:46:55;11.32;;;3.45;;
19312;SDS011;9791;50.820;4.406;2023-05-25T14:49:21;11.82;;;3.40;;
19312;SDS011;9791;50.820;4.406;2023-05-25T14:51:52;9.18;;;3.75;;
19312;SDS011;9791;50.820;4.406;2023-05-25T14:54:18;8.07;;;3.40;;
19312;SDS011;9791;50.820;4.406;2023-05-25T14:56:46;10.52;;;3.78;;
19312;SDS011;9791;50.820;4.406;2023-05-25T14:59:12;10.05;;;3.65;;
19312;SDS011;9791;50.820;4.406;2023-05-25T15:01:38;7.95;;;3.47;;
19312;SDS011;9791;50.820;4.406;2023-05-25T15:04:04;11.45;;;3.67;;
19312;SDS011;9791;50.820;4.406;2023-05-25T15:06:30;9.68;;;3.55;;
19312;SDS011;9791;50.820;4.406;2023-05-25T15:08:57;10.48;;;3.97;;
19312;SDS011;9791;50.820;4.406;2023-05-25T15:11:23;10.02;;;3.80;;
19312;SDS011;9791;50.820;4.406;2023-05-25T15:13:49;8.95;;;3.55;;
19312;SDS011;9791;50.820;4.406;2023-05-25T15:16:15;8.75;;;3.58;;